sensor_id;sensor_type;location;lat;lon;timestamp;P1;durP1;ratioP1;P2;durP2;ratioP2
83143;SDS011;73035;43.768;2.230;2024-03-22T00:00:29;7.57;;;3.55;;
83143;SDS011;73035;43.768;2.230;2024-03-22T00:02:55;9.45;;;3.90;;
83143;SDS011;73035;43.768;2.230;2024-03-22T00:07:46;9.48;;;3.60;;
83143;SDS011;73035;43.768;2.230;2024-03-22T00:10:12;6.30;;;3.45;;
83143;SDS011;73035;43.768;2.230;2024-03-22T00:12:38;13.68;;;3.70;;
83143;SDS011;73035;43.768;2.230;2024-03-22T00:15:04;7.50;;;3.50;;
83143;SDS011;73035;43.768;2.230;2024-03-22T00:17:30;8.48;;;4.80;;
83143;SDS011;73035;43.768;2.230;2024-03-22T00:19:56;7.38;;;4.03;;
83143;SDS011;73035;43.768;2.230;2024-03-22T00:22:21;9.00;;;3.60;;
83143;SDS011;73035;43.768;2.230;2024-03-22T00:24:47;6.97;;;3.88;;
83143;SDS011;73035;43.768;2.230;2024-03-22T00:27:12;12.20;;;4.43;;
83143;SDS011;73035;43.768;2.230;2024-03-22T00:29:37;9.93;;;3.58;;
83143;SDS011;73035;43.768;2.230;2024-03-22T00:32:03;7.22;;;3.42;;
83143;SDS011;73035;43.768;2.230;2024-03-22T00:34:29;7.90;;;4.20;;
83143;SDS011;73035;43.768;2.230;2024-03-22T00:36:55;5.40;;;3.55;;
83143;SDS011;73035;43.768;2.230;2024-03-22T00:39:20;10.05;;;4.05;;
83143;SDS011;73035;43.768;2.230;2024-03-22T00:41:45;10.45;;;3.90;;
83143;SDS011;73035;43.768;2.230;2024-03-22T00:44:11;9.23;;;5.00;;
83143;SDS011;73035;43.768;2.230;2024-03-22T00:46:36;8.25;;;3.22;;
83143;SDS011;73035;43.768;2.230;2024-03-22T00:49:01;7.85;;;4.00;;
83143;SDS011;73035;43.768;2.230;2024-03-22T00:53:52;7.88;;;3.85;;
83143;SDS011;73035;43.768;2.230;2024-03-22T00:56:18;6.25;;;3.55;;
83143;SDS011;73035;43.768;2.230;2024-03-22T01:01:08;6.33;;;3.60;;
83143;SDS011;73035;43.768;2.230;2024-03-22T01:05:59;7.77;;;3.83;;
83143;SDS011;73035;43.768;2.230;2024-03-22T01:08:24;8.10;;;3.78;;
83143;SDS011;73035;43.768;2.230;2024-03-22T01:10:50;8.15;;;3.53;;
83143;SDS011;73035;43.768;2.230;2024-03-22T01:13:16;7.50;;;3.55;;
83143;SDS011;73035;43.768;2.230;2024-03-22T01:18:06;5.93;;;3.47;;
83143;SDS011;73035;43.768;2.230;2024-03-22T01:20:32;8.20;;;4.03;;
83143;SDS011;73035;43.768;2.230;2024-03-22T01:25:24;10.32;;;3.60;;
83143;SDS011;73035;43.768;2.230;2024-03-22T01:27:49;6.43;;;3.35;;
83143;SDS011;73035;43.768;2.230;2024-03-22T01:32:40;6.43;;;3.70;;
83143;SDS011;73035;43.768;2.230;2024-03-22T01:35:05;9.15;;;4.15;;
83143;SDS011;73035;43.768;2.230;2024-03-22T01:37:31;9.48;;;3.85;;
83143;SDS011;73035;43.768;2.230;2024-03-22T01:39:56;6.43;;;4.40;;
83143;SDS011;73035;43.768;2.230;2024-03-22T01:42:21;5.63;;;3.22;;
83143;SDS011;73035;43.768;2.230;2024-03-22T01:44:48;8.55;;;4.35;;
83143;SDS011;73035;43.768;2.230;2024-03-22T01:47:14;6.05;;;3.50;;
83143;SDS011;73035;43.768;2.230;2024-03-22T01:49:40;7.60;;;4.20;;
83143;SDS011;73035;43.768;2.230;2024-03-22T01:54:31;8.13;;;4.60;;
83143;SDS011;73035;43.768;2.230;2024-03-22T01:56:56;9.27;;;3.67;;
83143;SDS011;73035;43.768;2.230;2024-03-22T02:01:47;8.03;;;3.97;;
83143;SDS011;73035;43.768;2.230;2024-03-22T02:04:13;12.57;;;4.15;;
83143;SDS011;73035;43.768;2.230;2024-03-22T02:09:04;7.33;;;3.20;;
83143;SDS011;73035;43.768;2.230;2024-03-22T02:11:30;6.57;;;4.03;;
83143;SDS011;73035;43.768;2.230;2024-03-22T02:13:56;8.02;;;4.05;;
83143;SDS011;73035;43.768;2.230;2024-03-22T02:18:47;8.23;;;4.20;;
83143;SDS011;73035;43.768;2.230;2024-03-22T02:23:38;7.70;;;3.60;;
83143;SDS011;73035;43.768;2.230;2024-03-22T02:26:05;5.22;;;3.10;;
83143;SDS011;73035;43.768;2.230;2024-03-22T02:28:32;5.55;;;3.55;;
83143;SDS011;73035;43.768;2.230;2024-03-22T02:30:58;6.22;;;3.70;;
83143;SDS011;73035;43.768;2.230;2024-03-22T02:35:49;5.63;;;3.65;;
83143;SDS011;73035;43.768;2.230;2024-03-22T02:38:15;10.20;;;3.80;;
83143;SDS011;73035;43.768;2.230;2024-03-22T02:40:42;8.02;;;4.10;;
83143;SDS011;73035;43.768;2.230;2024-03-22T02:43:08;8.90;;;4.40;;
83143;SDS011;73035;43.768;2.230;2024-03-22T02:47:59;5.83;;;3.17;;
83143;SDS011;73035;43.768;2.230;2024-03-22T02:52:49;6.30;;;3.73;;
83143;SDS011;73035;43.768;2.230;2024-03-22T02:57:40;6.55;;;3.80;;
83143;SDS011;73035;43.768;2.230;2024-03-22T03:00:06;7.35;;;3.42;;
83143;SDS011;73035;43.768;2.230;2024-03-22T03:04:57;9.17;;;4.60;;
83143;SDS011;73035;43.768;2.230;2024-03-22T03:09:49;7.88;;;3.58;;
83143;SDS011;73035;43.768;2.230;2024-03-22T03:14:39;5.77;;;3.37;;
83143;SDS011;73035;43.768;2.230;2024-03-22T03:19:30;5.60;;;3.50;;
83143;SDS011;73035;43.768;2.230;2024-03-22T03:24:21;5.60;;;4.03;;
83143;SDS011;73035;43.768;2.230;2024-03-22T03:29:11;8.53;;;3.40;;
83143;SDS011;73035;43.768;2.230;2024-03-22T03:34:02;8.43;;;4.30;;
83143;SDS011;73035;43.768;2.230;2024-03-22T03:38:52;5.40;;;3.73;;
83143;SDS011;73035;43.768;2.230;2024-03-22T03:43:43;6.00;;;3.40;;
83143;SDS011;73035;43.768;2.230;2024-03-22T03:48:33;7.13;;;3.50;;
83143;SDS011;73035;43.768;2.230;2024-03-22T03:53:27;7.15;;;3.80;;
83143;SDS011;73035;43.768;2.230;2024-03-22T03:58:18;7.37;;;3.53;;
83143;SDS011;73035;43.768;2.230;2024-03-22T04:03:09;5.40;;;3.65;;
83143;SDS011;73035;43.768;2.230;2024-03-22T04:08:00;5.17;;;3.27;;
83143;SDS011;73035;43.768;2.230;2024-03-22T04:12:50;6.00;;;3.70;;
83143;SDS011;73035;43.768;2.230;2024-03-22T04:17:41;6.00;;;3.70;;
83143;SDS011;73035;43.768;2.230;2024-03-22T04:22:32;7.97;;;3.17;;
83143;SDS011;73035;43.768;2.230;2024-03-22T04:27:22;7.93;;;3.33;;
83143;SDS011;73035;43.768;2.230;2024-03-22T04:32:13;5.93;;;3.20;;
83143;SDS011;73035;43.768;2.230;2024-03-22T04:37:06;5.60;;;2.80;;
83143;SDS011;73035;43.768;2.230;2024-03-22T04:41:57;5.77;;;3.30;;
83143;SDS011;73035;43.768;2.230;2024-03-22T04:46:47;5.73;;;3.43;;
83143;SDS011;73035;43.768;2.230;2024-03-22T04:51:38;9.80;;;3.80;;
83143;SDS011;73035;43.768;2.230;2024-03-22T04:56:29;5.00;;;3.73;;
83143;SDS011;73035;43.768;2.230;2024-03-22T05:01:20;5.50;;;3.63;;
83143;SDS011;73035;43.768;2.230;2024-03-22T05:06:11;7.63;;;3.30;;
83143;SDS011;73035;43.768;2.230;2024-03-22T05:11:01;4.73;;;2.97;;
83143;SDS011;73035;43.768;2.230;2024-03-22T05:13:28;5.10;;;3.63;;
83143;SDS011;73035;43.768;2.230;2024-03-22T05:18:18;6.13;;;4.27;;
83143;SDS011;73035;43.768;2.230;2024-03-22T05:23:09;9.63;;;4.00;;
83143;SDS011;73035;43.768;2.230;2024-03-22T05:28:00;5.03;;;3.67;;
83143;SDS011;73035;43.768;2.230;2024-03-22T05:32:51;10.03;;;8.30;;
83143;SDS011;73035;43.768;2.230;2024-03-22T05:37:41;9.97;;;5.93;;
83143;SDS011;73035;43.768;2.230;2024-03-22T05:42:33;5.35;;;4.13;;
83143;SDS011;73035;43.768;2.230;2024-03-22T05:47:24;5.73;;;3.97;;
83143;SDS011;73035;43.768;2.230;2024-03-22T05:49:49;8.65;;;5.60;;
83143;SDS011;73035;43.768;2.230;2024-03-22T05:54:40;5.25;;;3.30;;
83143;SDS011;73035;43.768;2.230;2024-03-22T05:59:31;5.97;;;3.65;;
83143;SDS011;73035;43.768;2.230;2024-03-22T06:04:22;4.77;;;2.57;;
83143;SDS011;73035;43.768;2.230;2024-03-22T06:06:48;6.53;;;2.90;;
83143;SDS011;73035;43.768;2.230;2024-03-22T06:11:48;5.32;;;3.63;;
83143;SDS011;73035;43.768;2.230;2024-03-22T06:16:39;5.27;;;2.77;;
83143;SDS011;73035;43.768;2.230;2024-03-22T06:21:29;15.90;;;4.47;;
83143;SDS011;73035;43.768;2.230;2024-03-22T06:26:20;5.55;;;3.58;;
83143;SDS011;73035;43.768;2.230;2024-03-22T06:31:11;5.55;;;3.30;;
83143;SDS011;73035;43.768;2.230;2024-03-22T06:36:02;6.03;;;3.47;;
83143;SDS011;73035;43.768;2.230;2024-03-22T06:38:28;8.02;;;3.63;;
83143;SDS011;73035;43.768;2.230;2024-03-22T06:40:53;4.82;;;3.17;;
83143;SDS011;73035;43.768;2.230;2024-03-22T06:43:19;6.70;;;3.03;;
83143;SDS011;73035;43.768;2.230;2024-03-22T06:45:44;7.07;;;2.95;;
83143;SDS011;73035;43.768;2.230;2024-03-22T06:48:09;5.60;;;3.05;;
83143;SDS011;73035;43.768;2.230;2024-03-22T06:50:35;6.95;;;4.30;;
83143;SDS011;73035;43.768;2.230;2024-03-22T06:53:00;8.60;;;2.97;;
83143;SDS011;73035;43.768;2.230;2024-03-22T06:55:25;6.70;;;3.10;;
83143;SDS011;73035;43.768;2.230;2024-03-22T06:57:51;8.98;;;3.30;;
83143;SDS011;73035;43.768;2.230;2024-03-22T07:00:17;5.20;;;3.08;;
83143;SDS011;73035;43.768;2.230;2024-03-22T07:02:43;5.28;;;3.25;;
83143;SDS011;73035;43.768;2.230;2024-03-22T07:05:09;10.73;;;3.92;;
83143;SDS011;73035;43.768;2.230;2024-03-22T07:07:35;8.75;;;3.75;;
83143;SDS011;73035;43.768;2.230;2024-03-22T07:10:01;9.00;;;3.65;;
83143;SDS011;73035;43.768;2.230;2024-03-22T07:12:33;10.60;;;3.78;;
83143;SDS011;73035;43.768;2.230;2024-03-22T07:14:59;6.93;;;4.10;;
83143;SDS011;73035;43.768;2.230;2024-03-22T07:17:25;9.98;;;4.40;;
83143;SDS011;73035;43.768;2.230;2024-03-22T07:19:51;6.70;;;3.67;;
83143;SDS011;73035;43.768;2.230;2024-03-22T07:22:17;6.60;;;3.67;;
83143;SDS011;73035;43.768;2.230;2024-03-22T07:24:42;5.88;;;3.65;;
83143;SDS011;73035;43.768;2.230;2024-03-22T07:27:08;7.75;;;4.00;;
83143;SDS011;73035;43.768;2.230;2024-03-22T07:29:33;7.57;;;3.72;;
83143;SDS011;73035;43.768;2.230;2024-03-22T07:31:58;9.80;;;4.57;;
83143;SDS011;73035;43.768;2.230;2024-03-22T07:34:24;10.98;;;4.22;;
83143;SDS011;73035;43.768;2.230;2024-03-22T07:36:49;8.38;;;4.35;;
83143;SDS011;73035;43.768;2.230;2024-03-22T07:39:15;7.30;;;4.53;;
83143;SDS011;73035;43.768;2.230;2024-03-22T07:41:40;9.68;;;5.18;;
83143;SDS011;73035;43.768;2.230;2024-03-22T07:44:05;6.90;;;4.78;;
83143;SDS011;73035;43.768;2.230;2024-03-22T07:46:31;10.20;;;4.78;;
83143;SDS011;73035;43.768;2.230;2024-03-22T07:48:56;8.32;;;5.18;;
83143;SDS011;73035;43.768;2.230;2024-03-22T07:51:22;10.15;;;5.05;;
83143;SDS011;73035;43.768;2.230;2024-03-22T07:53:47;7.32;;;5.05;;
83143;SDS011;73035;43.768;2.230;2024-03-22T07:56:12;8.95;;;4.57;;
83143;SDS011;73035;43.768;2.230;2024-03-22T07:58:38;8.80;;;5.30;;
83143;SDS011;73035;43.768;2.230;2024-03-22T08:01:04;9.68;;;4.25;;
83143;SDS011;73035;43.768;2.230;2024-03-22T08:03:29;9.55;;;4.05;;
83143;SDS011;73035;43.768;2.230;2024-03-22T08:05:55;7.78;;;4.20;;
83143;SDS011;73035;43.768;2.230;2024-03-22T08:08:20;8.05;;;4.65;;
83143;SDS011;73035;43.768;2.230;2024-03-22T08:10:45;7.03;;;4.55;;
83143;SDS011;73035;43.768;2.230;2024-03-22T08:13:11;9.55;;;4.82;;
83143;SDS011;73035;43.768;2.230;2024-03-22T08:15:36;11.32;;;4.45;;
83143;SDS011;73035;43.768;2.230;2024-03-22T08:18:01;12.98;;;5.35;;
83143;SDS011;73035;43.768;2.230;2024-03-22T08:20:27;9.27;;;4.93;;
83143;SDS011;73035;43.768;2.230;2024-03-22T08:22:53;11.05;;;5.32;;
83143;SDS011;73035;43.768;2.230;2024-03-22T08:25:18;7.75;;;3.70;;
83143;SDS011;73035;43.768;2.230;2024-03-22T08:27:45;10.77;;;5.50;;
83143;SDS011;73035;43.768;2.230;2024-03-22T08:30:11;7.90;;;4.25;;
83143;SDS011;73035;43.768;2.230;2024-03-22T08:32:37;8.88;;;4.40;;
83143;SDS011;73035;43.768;2.230;2024-03-22T08:35:02;11.88;;;4.25;;
83143;SDS011;73035;43.768;2.230;2024-03-22T08:37:29;9.20;;;4.47;;
83143;SDS011;73035;43.768;2.230;2024-03-22T08:39:54;8.43;;;4.60;;
83143;SDS011;73035;43.768;2.230;2024-03-22T08:42:20;7.80;;;4.50;;
83143;SDS011;73035;43.768;2.230;2024-03-22T08:44:45;7.85;;;4.80;;
83143;SDS011;73035;43.768;2.230;2024-03-22T08:47:10;7.05;;;4.05;;
83143;SDS011;73035;43.768;2.230;2024-03-22T08:49:36;9.20;;;3.95;;
83143;SDS011;73035;43.768;2.230;2024-03-22T08:52:02;10.07;;;4.20;;
83143;SDS011;73035;43.768;2.230;2024-03-22T08:54:27;7.57;;;4.07;;
83143;SDS011;73035;43.768;2.230;2024-03-22T08:56:53;12.85;;;4.75;;
83143;SDS011;73035;43.768;2.230;2024-03-22T08:59:18;8.27;;;3.92;;
83143;SDS011;73035;43.768;2.230;2024-03-22T09:01:44;8.88;;;3.90;;
83143;SDS011;73035;43.768;2.230;2024-03-22T09:04:09;10.73;;;3.78;;
83143;SDS011;73035;43.768;2.230;2024-03-22T09:06:34;7.63;;;3.75;;
83143;SDS011;73035;43.768;2.230;2024-03-22T09:09:00;5.43;;;3.53;;
83143;SDS011;73035;43.768;2.230;2024-03-22T09:11:25;9.65;;;4.53;;
83143;SDS011;73035;43.768;2.230;2024-03-22T09:13:51;7.40;;;4.00;;
83143;SDS011;73035;43.768;2.230;2024-03-22T09:16:17;10.05;;;4.70;;
83143;SDS011;73035;43.768;2.230;2024-03-22T09:18:43;11.18;;;5.05;;
83143;SDS011;73035;43.768;2.230;2024-03-22T09:21:08;9.75;;;3.85;;
83143;SDS011;73035;43.768;2.230;2024-03-22T09:23:35;11.35;;;4.70;;
83143;SDS011;73035;43.768;2.230;2024-03-22T09:26:01;12.38;;;5.10;;
83143;SDS011;73035;43.768;2.230;2024-03-22T09:28:26;9.27;;;4.50;;
83143;SDS011;73035;43.768;2.230;2024-03-22T09:30:51;9.98;;;4.85;;
83143;SDS011;73035;43.768;2.230;2024-03-22T09:33:16;7.93;;;4.55;;
83143;SDS011;73035;43.768;2.230;2024-03-22T09:35:43;9.95;;;4.80;;
83143;SDS011;73035;43.768;2.230;2024-03-22T09:38:08;8.80;;;4.68;;
83143;SDS011;73035;43.768;2.230;2024-03-22T09:40:34;9.32;;;4.78;;
83143;SDS011;73035;43.768;2.230;2024-03-22T09:43:01;9.88;;;4.47;;
83143;SDS011;73035;43.768;2.230;2024-03-22T09:45:30;9.20;;;4.70;;
83143;SDS011;73035;43.768;2.230;2024-03-22T09:47:56;9.10;;;3.95;;
83143;SDS011;73035;43.768;2.230;2024-03-22T09:50:22;9.32;;;4.10;;
83143;SDS011;73035;43.768;2.230;2024-03-22T09:52:47;9.10;;;4.88;;
83143;SDS011;73035;43.768;2.230;2024-03-22T09:55:13;9.93;;;4.03;;
83143;SDS011;73035;43.768;2.230;2024-03-22T09:57:39;11.32;;;4.25;;
83143;SDS011;73035;43.768;2.230;2024-03-22T10:00:07;10.98;;;4.32;;
83143;SDS011;73035;43.768;2.230;2024-03-22T10:02:33;14.20;;;4.50;;
83143;SDS011;73035;43.768;2.230;2024-03-22T10:04:59;12.82;;;4.70;;
83143;SDS011;73035;43.768;2.230;2024-03-22T10:07:25;9.18;;;4.35;;
83143;SDS011;73035;43.768;2.230;2024-03-22T10:09:53;11.35;;;4.38;;
83143;SDS011;73035;43.768;2.230;2024-03-22T10:12:18;10.00;;;4.70;;
83143;SDS011;73035;43.768;2.230;2024-03-22T10:14:45;9.77;;;4.28;;
83143;SDS011;73035;43.768;2.230;2024-03-22T10:17:11;8.00;;;4.70;;
83143;SDS011;73035;43.768;2.230;2024-03-22T10:19:36;9.10;;;4.30;;
83143;SDS011;73035;43.768;2.230;2024-03-22T10:22:02;7.78;;;4.53;;
83143;SDS011;73035;43.768;2.230;2024-03-22T10:24:28;9.52;;;4.78;;
83143;SDS011;73035;43.768;2.230;2024-03-22T10:26:54;6.88;;;4.28;;
83143;SDS011;73035;43.768;2.230;2024-03-22T10:29:20;7.72;;;4.40;;
83143;SDS011;73035;43.768;2.230;2024-03-22T10:31:47;9.23;;;4.35;;
83143;SDS011;73035;43.768;2.230;2024-03-22T10:34:13;11.40;;;5.75;;
83143;SDS011;73035;43.768;2.230;2024-03-22T10:36:39;5.43;;;4.03;;
83143;SDS011;73035;43.768;2.230;2024-03-22T10:39:05;7.05;;;4.25;;
83143;SDS011;73035;43.768;2.230;2024-03-22T10:41:30;8.95;;;4.65;;
83143;SDS011;73035;43.768;2.230;2024-03-22T10:43:56;13.10;;;4.20;;
83143;SDS011;73035;43.768;2.230;2024-03-22T10:46:23;10.77;;;4.43;;
83143;SDS011;73035;43.768;2.230;2024-03-22T10:48:54;10.32;;;4.90;;
83143;SDS011;73035;43.768;2.230;2024-03-22T10:51:20;12.15;;;4.13;;
83143;SDS011;73035;43.768;2.230;2024-03-22T10:53:46;12.60;;;4.57;;
83143;SDS011;73035;43.768;2.230;2024-03-22T10:56:12;7.25;;;3.80;;
83143;SDS011;73035;43.768;2.230;2024-03-22T10:58:40;8.57;;;4.50;;
83143;SDS011;73035;43.768;2.230;2024-03-22T11:01:05;8.70;;;4.50;;
83143;SDS011;73035;43.768;2.230;2024-03-22T11:03:31;8.73;;;4.38;;
83143;SDS011;73035;43.768;2.230;2024-03-22T11:05:58;10.27;;;4.57;;
83143;SDS011;73035;43.768;2.230;2024-03-22T11:08:24;9.65;;;5.07;;
83143;SDS011;73035;43.768;2.230;2024-03-22T11:10:49;8.45;;;4.45;;
83143;SDS011;73035;43.768;2.230;2024-03-22T11:13:16;7.85;;;4.15;;
83143;SDS011;73035;43.768;2.230;2024-03-22T11:15:42;7.00;;;4.90;;
83143;SDS011;73035;43.768;2.230;2024-03-22T11:18:07;8.63;;;4.47;;
83143;SDS011;73035;43.768;2.230;2024-03-22T11:20:35;6.80;;;3.50;;
83143;SDS011;73035;43.768;2.230;2024-03-22T11:23:03;7.20;;;3.95;;
83143;SDS011;73035;43.768;2.230;2024-03-22T11:25:31;5.63;;;2.55;;
83143;SDS011;73035;43.768;2.230;2024-03-22T11:27:57;7.93;;;3.47;;
83143;SDS011;73035;43.768;2.230;2024-03-22T11:30:24;6.78;;;3.60;;
83143;SDS011;73035;43.768;2.230;2024-03-22T11:32:49;9.18;;;3.35;;
83143;SDS011;73035;43.768;2.230;2024-03-22T11:35:15;6.18;;;3.00;;
83143;SDS011;73035;43.768;2.230;2024-03-22T11:37:40;8.75;;;3.50;;
83143;SDS011;73035;43.768;2.230;2024-03-22T11:40:08;7.40;;;3.42;;
83143;SDS011;73035;43.768;2.230;2024-03-22T11:42:35;10.82;;;3.65;;
83143;SDS011;73035;43.768;2.230;2024-03-22T11:45:10;6.40;;;2.92;;
83143;SDS011;73035;43.768;2.230;2024-03-22T11:47:36;7.30;;;3.15;;
83143;SDS011;73035;43.768;2.230;2024-03-22T11:50:02;5.57;;;2.33;;
83143;SDS011;73035;43.768;2.230;2024-03-22T11:52:28;7.63;;;2.92;;
83143;SDS011;73035;43.768;2.230;2024-03-22T11:54:54;4.95;;;2.63;;
83143;SDS011;73035;43.768;2.230;2024-03-22T11:57:23;6.47;;;3.00;;
83143;SDS011;73035;43.768;2.230;2024-03-22T11:59:50;4.32;;;2.80;;
83143;SDS011;73035;43.768;2.230;2024-03-22T12:02:15;5.57;;;2.65;;
83143;SDS011;73035;43.768;2.230;2024-03-22T12:04:41;4.65;;;2.28;;
83143;SDS011;73035;43.768;2.230;2024-03-22T12:07:10;4.95;;;2.35;;
83143;SDS011;73035;43.768;2.230;2024-03-22T12:09:36;6.32;;;2.50;;
83143;SDS011;73035;43.768;2.230;2024-03-22T12:12:03;10.30;;;2.67;;
83143;SDS011;73035;43.768;2.230;2024-03-22T12:14:29;8.57;;;3.10;;
83143;SDS011;73035;43.768;2.230;2024-03-22T12:16:54;6.55;;;2.63;;
83143;SDS011;73035;43.768;2.230;2024-03-22T12:19:19;4.38;;;2.15;;
83143;SDS011;73035;43.768;2.230;2024-03-22T12:21:45;8.57;;;3.00;;
83143;SDS011;73035;43.768;2.230;2024-03-22T12:24:10;4.43;;;2.30;;
83143;SDS011;73035;43.768;2.230;2024-03-22T12:26:35;6.82;;;2.33;;
83143;SDS011;73035;43.768;2.230;2024-03-22T12:29:01;5.00;;;2.10;;
83143;SDS011;73035;43.768;2.230;2024-03-22T12:31:27;5.65;;;2.28;;
83143;SDS011;73035;43.768;2.230;2024-03-22T12:33:53;5.93;;;2.38;;
83143;SDS011;73035;43.768;2.230;2024-03-22T12:36:18;5.85;;;2.45;;
83143;SDS011;73035;43.768;2.230;2024-03-22T12:38:43;6.47;;;2.85;;
83143;SDS011;73035;43.768;2.230;2024-03-22T12:41:08;8.52;;;3.35;;
83143;SDS011;73035;43.768;2.230;2024-03-22T12:43:34;6.07;;;2.33;;
83143;SDS011;73035;43.768;2.230;2024-03-22T12:45:59;7.07;;;2.42;;
83143;SDS011;73035;43.768;2.230;2024-03-22T12:48:25;6.10;;;2.30;;
83143;SDS011;73035;43.768;2.230;2024-03-22T12:50:50;7.13;;;2.53;;
83143;SDS011;73035;43.768;2.230;2024-03-22T12:53:16;5.93;;;2.58;;
83143;SDS011;73035;43.768;2.230;2024-03-22T12:55:43;9.05;;;2.75;;
83143;SDS011;73035;43.768;2.230;2024-03-22T12:58:08;6.35;;;2.10;;
83143;SDS011;73035;43.768;2.230;2024-03-22T13:00:33;4.80;;;2.38;;
83143;SDS011;73035;43.768;2.230;2024-03-22T13:02:59;6.72;;;2.28;;
83143;SDS011;73035;43.768;2.230;2024-03-22T13:05:25;4.45;;;2.47;;
83143;SDS011;73035;43.768;2.230;2024-03-22T13:07:50;7.15;;;2.40;;
83143;SDS011;73035;43.768;2.230;2024-03-22T13:10:17;4.28;;;2.30;;
83143;SDS011;73035;43.768;2.230;2024-03-22T13:12:43;4.72;;;2.55;;
83143;SDS011;73035;43.768;2.230;2024-03-22T13:15:08;5.55;;;2.58;;
83143;SDS011;73035;43.768;2.230;2024-03-22T13:17:34;4.63;;;2.05;;
83143;SDS011;73035;43.768;2.230;2024-03-22T13:20:00;6.32;;;2.55;;
83143;SDS011;73035;43.768;2.230;2024-03-22T13:22:25;5.70;;;2.50;;
83143;SDS011;73035;43.768;2.230;2024-03-22T13:24:50;6.10;;;2.10;;
83143;SDS011;73035;43.768;2.230;2024-03-22T13:27:16;6.25;;;3.22;;
83143;SDS011;73035;43.768;2.230;2024-03-22T13:29:41;6.90;;;2.70;;
83143;SDS011;73035;43.768;2.230;2024-03-22T13:32:07;10.65;;;2.70;;
83143;SDS011;73035;43.768;2.230;2024-03-22T13:34:35;6.20;;;2.90;;
83143;SDS011;73035;43.768;2.230;2024-03-22T13:37:04;5.55;;;2.78;;
83143;SDS011;73035;43.768;2.230;2024-03-22T13:39:29;5.72;;;2.50;;
83143;SDS011;73035;43.768;2.230;2024-03-22T13:41:55;4.80;;;2.90;;
83143;SDS011;73035;43.768;2.230;2024-03-22T13:44:21;4.60;;;2.30;;
83143;SDS011;73035;43.768;2.230;2024-03-22T13:46:46;6.95;;;2.33;;
83143;SDS011;73035;43.768;2.230;2024-03-22T13:49:14;4.65;;;2.25;;
83143;SDS011;73035;43.768;2.230;2024-03-22T13:51:41;4.82;;;2.17;;
83143;SDS011;73035;43.768;2.230;2024-03-22T13:54:07;7.00;;;2.67;;
83143;SDS011;73035;43.768;2.230;2024-03-22T13:56:32;5.90;;;2.38;;
83143;SDS011;73035;43.768;2.230;2024-03-22T13:58:58;4.03;;;2.28;;
83143;SDS011;73035;43.768;2.230;2024-03-22T14:01:23;4.53;;;2.50;;
83143;SDS011;73035;43.768;2.230;2024-03-22T14:03:48;10.23;;;3.05;;
83143;SDS011;73035;43.768;2.230;2024-03-22T14:06:14;7.30;;;2.33;;
83143;SDS011;73035;43.768;2.230;2024-03-22T14:08:39;6.65;;;2.03;;
83143;SDS011;73035;43.768;2.230;2024-03-22T14:11:04;3.97;;;2.08;;
83143;SDS011;73035;43.768;2.230;2024-03-22T14:13:30;5.93;;;2.15;;
83143;SDS011;73035;43.768;2.230;2024-03-22T14:15:55;8.27;;;2.80;;
83143;SDS011;73035;43.768;2.230;2024-03-22T14:18:21;5.43;;;1.85;;
83143;SDS011;73035;43.768;2.230;2024-03-22T14:20:46;5.95;;;1.70;;
83143;SDS011;73035;43.768;2.230;2024-03-22T14:23:11;10.43;;;3.00;;
83143;SDS011;73035;43.768;2.230;2024-03-22T14:25:37;4.78;;;2.33;;
83143;SDS011;73035;43.768;2.230;2024-03-22T14:28:02;4.55;;;1.70;;
83143;SDS011;73035;43.768;2.230;2024-03-22T14:30:28;10.50;;;2.75;;
83143;SDS011;73035;43.768;2.230;2024-03-22T14:32:53;5.53;;;2.22;;
83143;SDS011;73035;43.768;2.230;2024-03-22T14:35:18;3.13;;;1.83;;
83143;SDS011;73035;43.768;2.230;2024-03-22T14:37:46;4.53;;;2.00;;
83143;SDS011;73035;43.768;2.230;2024-03-22T14:40:11;2.90;;;1.80;;
83143;SDS011;73035;43.768;2.230;2024-03-22T14:42:37;8.85;;;2.22;;
83143;SDS011;73035;43.768;2.230;2024-03-22T14:45:03;7.53;;;2.22;;
83143;SDS011;73035;43.768;2.230;2024-03-22T14:47:28;10.07;;;2.50;;
83143;SDS011;73035;43.768;2.230;2024-03-22T14:49:54;6.10;;;2.60;;
83143;SDS011;73035;43.768;2.230;2024-03-22T14:52:19;8.30;;;2.60;;
83143;SDS011;73035;43.768;2.230;2024-03-22T14:54:46;4.93;;;2.05;;
83143;SDS011;73035;43.768;2.230;2024-03-22T14:57:12;6.35;;;1.80;;
83143;SDS011;73035;43.768;2.230;2024-03-22T14:59:37;6.47;;;2.10;;
83143;SDS011;73035;43.768;2.230;2024-03-22T15:02:02;6.80;;;2.55;;
83143;SDS011;73035;43.768;2.230;2024-03-22T15:04:28;3.63;;;2.58;;
83143;SDS011;73035;43.768;2.230;2024-03-22T15:06:53;9.63;;;2.40;;
83143;SDS011;73035;43.768;2.230;2024-03-22T15:09:18;5.25;;;2.75;;
83143;SDS011;73035;43.768;2.230;2024-03-22T15:11:44;9.73;;;2.47;;
83143;SDS011;73035;43.768;2.230;2024-03-22T15:14:11;5.70;;;2.60;;
83143;SDS011;73035;43.768;2.230;2024-03-22T15:16:37;6.68;;;2.78;;
83143;SDS011;73035;43.768;2.230;2024-03-22T15:19:03;5.80;;;2.80;;
83143;SDS011;73035;43.768;2.230;2024-03-22T15:21:28;4.63;;;2.13;;
83143;SDS011;73035;43.768;2.230;2024-03-22T15:23:53;5.85;;;2.40;;
83143;SDS011;73035;43.768;2.230;2024-03-22T15:26:19;8.90;;;2.83;;
83143;SDS011;73035;43.768;2.230;2024-03-22T15:28:46;4.38;;;2.42;;
83143;SDS011;73035;43.768;2.230;2024-03-22T15:31:13;5.28;;;2.75;;
83143;SDS011;73035;43.768;2.230;2024-03-22T15:33:38;5.28;;;2.17;;
83143;SDS011;73035;43.768;2.230;2024-03-22T15:36:04;7.57;;;2.97;;
83143;SDS011;73035;43.768;2.230;2024-03-22T15:38:29;6.72;;;2.40;;
83143;SDS011;73035;43.768;2.230;2024-03-22T15:40:54;6.93;;;2.78;;
83143;SDS011;73035;43.768;2.230;2024-03-22T15:43:20;6.13;;;2.80;;
83143;SDS011;73035;43.768;2.230;2024-03-22T15:45:46;7.07;;;2.70;;
83143;SDS011;73035;43.768;2.230;2024-03-22T15:48:11;6.85;;;2.90;;
83143;SDS011;73035;43.768;2.230;2024-03-22T15:50:37;7.00;;;2.65;;
83143;SDS011;73035;43.768;2.230;2024-03-22T15:53:02;5.72;;;2.65;;
83143;SDS011;73035;43.768;2.230;2024-03-22T15:55:28;6.18;;;2.60;;
83143;SDS011;73035;43.768;2.230;2024-03-22T15:57:56;7.75;;;2.97;;
83143;SDS011;73035;43.768;2.230;2024-03-22T16:00:22;7.95;;;3.28;;
83143;SDS011;73035;43.768;2.230;2024-03-22T16:02:48;8.07;;;3.60;;
83143;SDS011;73035;43.768;2.230;2024-03-22T16:05:15;6.97;;;2.63;;
83143;SDS011;73035;43.768;2.230;2024-03-22T16:07:41;6.97;;;2.80;;
83143;SDS011;73035;43.768;2.230;2024-03-22T16:10:07;7.47;;;3.20;;
83143;SDS011;73035;43.768;2.230;2024-03-22T16:12:32;4.82;;;2.40;;
83143;SDS011;73035;43.768;2.230;2024-03-22T16:14:58;8.93;;;2.95;;
83143;SDS011;73035;43.768;2.230;2024-03-22T16:17:23;8.43;;;2.60;;
83143;SDS011;73035;43.768;2.230;2024-03-22T16:19:58;5.60;;;3.25;;
83143;SDS011;73035;43.768;2.230;2024-03-22T16:22:24;15.05;;;3.63;;
83143;SDS011;73035;43.768;2.230;2024-03-22T16:24:49;10.05;;;4.07;;
83143;SDS011;73035;43.768;2.230;2024-03-22T16:27:15;9.48;;;2.80;;
83143;SDS011;73035;43.768;2.230;2024-03-22T16:29:41;6.57;;;2.63;;
83143;SDS011;73035;43.768;2.230;2024-03-22T16:32:06;4.82;;;2.60;;
83143;SDS011;73035;43.768;2.230;2024-03-22T16:34:32;8.30;;;3.00;;
83143;SDS011;73035;43.768;2.230;2024-03-22T16:36:57;8.32;;;2.88;;
83143;SDS011;73035;43.768;2.230;2024-03-22T16:39:23;17.65;;;4.18;;
83143;SDS011;73035;43.768;2.230;2024-03-22T16:41:48;8.02;;;2.78;;
83143;SDS011;73035;43.768;2.230;2024-03-22T16:44:15;7.43;;;3.28;;
83143;SDS011;73035;43.768;2.230;2024-03-22T16:46:41;10.38;;;3.10;;
83143;SDS011;73035;43.768;2.230;2024-03-22T16:49:07;5.85;;;2.55;;
83143;SDS011;73035;43.768;2.230;2024-03-22T16:51:32;7.07;;;3.17;;
83143;SDS011;73035;43.768;2.230;2024-03-22T16:53:57;8.82;;;2.95;;
83143;SDS011;73035;43.768;2.230;2024-03-22T16:56:23;6.82;;;2.83;;
83143;SDS011;73035;43.768;2.230;2024-03-22T16:58:48;6.35;;;2.78;;